Time;durP1;ratioP1;P1;durP2;ratioP2;P2;SDS_P1;SDS_P2;PMS_P1;PMS_P2;Temp;Humidity;BMP_temperature;BMP_pressure;BME280_temperature;BME280_humidity;BME280_pressure;Samples;Min_cycle;Max_cycle;Signal;HPM_P1;HPM_P2
2023/06/10 00:00:47;;;;;;;;;;;;;;;24.07;16.05;101970.03;5042971;28;19920;-69
2023/06/10 00:03:12;;;;;;;;;;;;;;;23.98;16.26;101979.75;5043600;28;19913;-70
2023/06/10 00:05:38;;;;;;;;;;;;;;;23.91;16.85;101979.94;5044026;28;19913;-71
2023/06/10 00:08:07;;;;;;;;;;;;;;;23.85;16.41;101980.94;5045281;28;19928;-70
2023/06/10 00:10:33;;;;;;;;;;;;;;;23.78;16.46;101989.25;5027997;28;20346;-70
2023/06/10 00:12:58;;;;;;;;;;;;;;;23.73;16.47;101989.16;5051274;28;19913;-70
2023/06/10 00:15:23;;;;;;;;;;;;;;;23.65;16.40;101995.03;5054295;28;19916;-71
2023/06/10 00:17:49;;;;;;;;;;;;;;;23.60;16.68;101993.00;5053951;28;19967;-70
2023/06/10 00:20:14;;;;;;;;;;;;;;;23.57;16.80;101991.59;5053800;28;19996;-71
2023/06/10 00:22:41;;;;;;;;;;;;;;;23.48;16.59;101990.31;5036111;28;19916;-70
2023/06/10 00:25:06;;;;;;;;;;;;;;;23.49;17.08;101997.44;5053837;28;19920;-70
2023/06/10 00:27:34;;;;;;;;;;;;;;;23.42;16.68;101991.31;5053858;28;19917;-70
2023/06/10 00:30:06;;;;;;;;;;;;;;;23.36;16.75;101998.59;5053726;28;19912;-70
2023/06/10 00:32:32;;;;;;;;;;;;;;;23.27;17.10;101991.81;5035204;28;19913;-70
2023/06/10 00:34:57;;;;;;;;;;;;;;;23.21;17.13;102000.16;5053645;28;19987;-68
2023/06/10 00:37:23;;;;;;;;;;;;;;;23.14;17.04;102001.13;5053558;28;19913;-68
2023/06/10 00:39:48;;;;;;;;;;;;;;;23.10;17.38;102010.06;5053557;28;19931;-68
2023/06/10 00:42:13;;;;;;;;;;;;;;;23.09;17.32;102013.88;5053493;28;19919;-69
2023/06/10 00:44:38;;;;;;;;;;;;;;;23.05;17.20;102012.66;5053454;28;20046;-68
2023/06/10 00:47:05;;;;;;;;;;;;;;;23.02;17.25;102011.22;5035128;28;19913;-69
2023/06/10 00:49:30;;;;;;;;;;;;;;;23.00;17.57;102018.84;5034821;28;20023;-69
2023/06/10 00:51:56;;;;;;;;;;;;;;;22.94;17.95;102017.91;5053136;28;20051;-69
2023/06/10 00:54:21;;;;;;;;;;;;;;;22.83;17.41;102024.22;5052981;28;20405;-69
2023/06/10 00:56:47;;;;;;;;;;;;;;;22.76;18.06;102027.06;5034830;28;19920;-69
2023/06/10 00:59:14;;;;;;;;;;;;;;;22.67;17.94;102028.47;5052889;28;20023;-69
2023/06/10 01:01:39;;;;;;;;;;;;;;;22.60;18.14;102034.09;5052140;28;19912;-69
2023/06/10 01:04:05;;;;;;;;;;;;;;;22.57;18.82;102022.75;5035250;28;20004;-69
2023/06/10 01:06:37;;;;;;;;;;;;;;;22.52;18.05;102037.16;5053194;28;19960;-70
2023/06/10 01:09:05;;;;;;;;;;;;;;;22.47;18.09;102038.94;5058901;28;20357;-70
2023/06/10 01:12:03;;;;;;;;;;;;;;;22.41;18.15;102033.31;5073028;28;19924;-70
2023/06/10 01:14:29;;;;;;;;;;;;;;;22.41;18.52;102027.84;5011244;28;20367;-70
2023/06/10 01:16:54;;;;;;;;;;;;;;;22.32;18.34;102037.44;5068823;28;19916;-71
2023/06/10 01:19:19;;;;;;;;;;;;;;;22.28;18.28;102047.22;5052859;28;19952;-70
2023/06/10 01:21:48;;;;;;;;;;;;;;;22.27;19.54;102042.81;5052880;28;19936;-71
2023/06/10 01:24:14;;;;;;;;;;;;;;;22.19;18.52;102043.09;5052799;28;20011;-70
2023/06/10 01:26:41;;;;;;;;;;;;;;;22.13;18.52;102039.38;5052891;28;19956;-70
2023/06/10 01:29:14;;;;;;;;;;;;;;;22.07;18.53;102047.72;5052781;28;20360;-71
2023/06/10 01:31:47;;;;;;;;;;;;;;;21.99;19.24;102049.69;5052597;28;19919;-69
2023/06/10 01:34:16;;;;;;;;;;;;;;;21.94;18.84;102043.25;5052765;28;19995;-69
2023/06/10 01:36:44;;;;;;;;;;;;;;;21.91;19.27;102046.44;5051371;28;19913;-69
2023/06/10 01:39:11;;;;;;;;;;;;;;;21.96;18.64;102052.88;5052552;28;19925;-69
2023/06/10 01:41:37;;;;;;;;;;;;;;;21.90;18.78;102053.81;5052563;28;19913;-69
2023/06/10 01:44:02;;;;;;;;;;;;;;;21.85;18.91;102054.50;5052149;28;19917;-69
2023/06/10 01:46:28;;;;;;;;;;;;;;;21.84;19.36;102062.94;5052247;28;19913;-69
2023/06/10 01:48:53;;;;;;;;;;;;;;;21.76;18.89;102053.13;5052418;28;19917;-69
2023/06/10 01:51:19;;;;;;;;;;;;;;;21.73;18.85;102056.34;5052431;28;20091;-70
2023/06/10 01:53:44;;;;;;;;;;;;;;;21.71;19.61;102058.47;5034363;28;19920;-70
2023/06/10 01:56:09;;;;;;;;;;;;;;;21.65;19.46;102060.19;5052202;28;19917;-70
2023/06/10 01:58:35;;;;;;;;;;;;;;;21.63;19.00;102069.72;5051737;28;20019;-69
2023/06/10 02:01:00;;;;;;;;;;;;;;;21.58;19.33;102062.22;5033494;28;19912;-69
2023/06/10 02:03:25;;;;;;;;;;;;;;;21.57;19.51;102078.84;5034304;28;19919;-69
2023/06/10 02:05:50;;;;;;;;;;;;;;;21.55;19.56;102078.22;5034776;28;19964;-69
2023/06/10 02:08:16;;;;;;;;;;;;;;;21.53;19.48;102078.44;5052364;28;20377;-69
2023/06/10 02:10:41;;;;;;;;;;;;;;;21.50;20.20;102087.09;5071775;28;20347;-70
2023/06/10 02:13:06;;;;;;;;;;;;;;;21.49;20.08;102088.19;5050842;28;19924;-69
2023/06/10 02:15:32;;;;;;;;;;;;;;;21.46;19.67;102092.19;5050971;28;19919;-69
2023/06/10 02:17:57;;;;;;;;;;;;;;;21.42;19.83;102090.94;5051171;28;19912;-69
2023/06/10 02:20:23;;;;;;;;;;;;;;;21.40;20.01;102089.50;5050649;28;20414;-69
2023/06/10 02:22:48;;;;;;;;;;;;;;;21.34;21.10;102093.13;5051896;28;19913;-70
2023/06/10 02:25:13;;;;;;;;;;;;;;;21.33;20.01;102094.19;5050598;28;20300;-70
2023/06/10 02:27:39;;;;;;;;;;;;;;;21.32;19.89;102100.72;5051769;28;19917;-70
2023/06/10 02:30:04;;;;;;;;;;;;;;;21.32;20.24;102103.44;5052014;28;19920;-70
2023/06/10 02:32:30;;;;;;;;;;;;;;;21.34;20.03;102104.91;5052261;28;19920;-69
2023/06/10 02:34:55;;;;;;;;;;;;;;;21.32;19.64;102104.31;5051821;28;20369;-69
2023/06/10 02:37:20;;;;;;;;;;;;;;;21.27;19.98;102106.88;5051830;28;20042;-69
2023/06/10 02:39:46;;;;;;;;;;;;;;;21.22;19.87;102112.16;5051995;28;20289;-69
2023/06/10 02:42:11;;;;;;;;;;;;;;;21.22;19.95;102115.72;5052087;28;20024;-69
2023/06/10 02:44:37;;;;;;;;;;;;;;;21.21;19.93;102111.34;5051855;28;19917;-69
2023/06/10 02:47:02;;;;;;;;;;;;;;;21.18;20.16;102114.50;5051842;28;19913;-69
2023/06/10 02:49:28;;;;;;;;;;;;;;;21.19;19.88;102112.59;5051908;28;20273;-68
2023/06/10 02:51:53;;;;;;;;;;;;;;;21.17;19.93;102126.50;5051860;28;19916;-68
2023/06/10 02:54:22;;;;;;;;;;;;;;;21.15;20.07;102131.34;5051861;28;20012;-69
2023/06/10 02:56:48;;;;;;;;;;;;;;;21.16;20.29;102130.28;5053905;28;19952;-69
2023/06/10 02:59:13;;;;;;;;;;;;;;;21.15;19.98;102135.97;5055268;28;20014;-69
2023/06/10 03:01:39;;;;;;;;;;;;;;;21.13;19.93;102138.09;5054778;28;20010;-69
2023/06/10 03:04:05;;;;;;;;;;;;;;;21.15;19.66;102135.97;5055099;28;19920;-68
2023/06/10 03:06:30;;;;;;;;;;;;;;;21.13;19.83;102133.47;5054169;28;20485;-69
2023/06/10 03:08:55;;;;;;;;;;;;;;;21.16;19.94;102143.13;5059898;28;19939;-69
2023/06/10 03:11:20;;;;;;;;;;;;;;;21.16;20.10;102148.59;5055041;28;19920;-69
2023/06/10 03:13:46;;;;;;;;;;;;;;;21.18;20.53;102143.72;5055283;28;19955;-69
2023/06/10 03:16:12;;;;;;;;;;;;;;;21.16;20.17;102151.31;5055111;28;19936;-69
2023/06/10 03:18:37;;;;;;;;;;;;;;;21.16;20.88;102154.06;5054149;28;20365;-70
2023/06/10 03:21:03;;;;;;;;;;;;;;;21.18;20.84;102155.50;5055254;28;20356;-70
2023/06/10 03:23:28;;;;;;;;;;;;;;;21.15;20.48;102147.72;5053547;28;20392;-70
2023/06/10 03:25:54;;;;;;;;;;;;;;;21.15;20.32;102150.47;5055025;28;19967;-70
2023/06/10 03:28:21;;;;;;;;;;;;;;;21.12;20.51;102155.53;5054970;28;19921;-70
2023/06/10 03:30:47;;;;;;;;;;;;;;;21.11;20.88;102154.72;5054993;28;20312;-70
2023/06/10 03:33:12;;;;;;;;;;;;;;;21.15;20.67;102157.84;5054872;28;19913;-70
2023/06/10 03:35:37;;;;;;;;;;;;;;;21.20;21.18;102160.75;5054861;28;20270;-70
2023/06/10 03:38:03;;;;;;;;;;;;;;;21.17;21.15;102162.03;5054721;28;20290;-70
2023/06/10 03:40:30;;;;;;;;;;;;;;;21.19;20.70;102162.66;5036870;28;19916;-69
2023/06/10 03:42:55;;;;;;;;;;;;;;;21.19;20.66;102164.53;5036568;28;19913;-69
2023/06/10 03:45:20;;;;;;;;;;;;;;;21.19;20.79;102169.97;5036723;28;19927;-69
2023/06/10 03:47:47;;;;;;;;;;;;;;;21.20;20.79;102167.03;5054479;28;19966;-69
2023/06/10 03:50:13;;;;;;;;;;;;;;;21.24;20.85;102173.72;5054432;28;19913;-69
2023/06/10 03:52:39;;;;;;;;;;;;;;;21.26;20.63;102176.22;5054418;28;19913;-69
2023/06/10 03:55:05;;;;;;;;;;;;;;;21.25;20.68;102169.94;5054373;28;19920;-69
2023/06/10 03:57:31;;;;;;;;;;;;;;;21.24;20.62;102176.44;5054464;28;19913;-69
2023/06/10 03:59:56;;;;;;;;;;;;;;;21.34;20.31;102175.09;5054068;28;19970;-69
2023/06/10 04:02:22;;;;;;;;;;;;;;;21.34;20.42;102173.25;5053548;28;19919;-70
2023/06/10 04:04:47;;;;;;;;;;;;;;;21.36;20.43;102175.72;5054285;28;20464;-69
2023/06/10 04:07:13;;;;;;;;;;;;;;;21.41;20.47;102171.28;5048648;28;19921;-69
2023/06/10 04:09:39;;;;;;;;;;;;;;;21.40;20.38;102175.06;5064888;28;19977;-69
2023/06/10 04:12:08;;;;;;;;;;;;;;;21.41;20.44;102176.75;5074065;28;19961;-69
2023/06/10 04:14:33;;;;;;;;;;;;;;;21.43;20.35;102166.44;5074090;28;19919;-69
2023/06/10 04:16:59;;;;;;;;;;;;;;;21.46;20.29;102170.63;5074022;28;19912;-69
2023/06/10 04:19:24;;;;;;;;;;;;;;;21.45;20.23;102168.94;5074009;28;20292;-69
2023/06/10 04:21:50;;;;;;;;;;;;;;;21.52;20.23;102168.88;5073878;28;20035;-69
2023/06/10 04:24:15;;;;;;;;;;;;;;;21.54;19.98;102173.06;5073677;28;20001;-70
2023/06/10 04:26:40;;;;;;;;;;;;;;;21.58;20.44;102176.19;5073867;28;19974;-70
2023/06/10 04:29:05;;;;;;;;;;;;;;;21.64;20.57;102180.78;5060641;28;19917;-70
2023/06/10 04:31:32;;;;;;;;;;;;;;;21.68;20.51;102178.41;5053820;28;20591;-70
2023/06/10 04:33:57;;;;;;;;;;;;;;;21.69;20.29;102186.38;5053550;28;19913;-70
2023/06/10 04:36:23;;;;;;;;;;;;;;;21.72;20.04;102182.38;5053494;28;19920;-70
2023/06/10 04:38:49;;;;;;;;;;;;;;;21.79;20.05;102186.69;5053553;28;19931;-69
2023/06/10 04:41:14;;;;;;;;;;;;;;;21.75;20.06;102190.97;5035584;28;19928;-69
2023/06/10 04:43:39;;;;;;;;;;;;;;;21.80;19.73;102191.13;5053082;28;19917;-69
2023/06/10 04:46:05;;;;;;;;;;;;;;;21.83;20.47;102198.84;5035812;28;19913;-68
2023/06/10 04:48:30;;;;;;;;;;;;;;;21.89;20.20;102190.81;5053759;28;20503;-69
2023/06/10 04:50:56;;;;;;;;;;;;;;;21.87;20.20;102190.22;5053217;28;19919;-69
2023/06/10 04:53:22;;;;;;;;;;;;;;;21.91;19.99;102200.44;5052752;28;19913;-68
2023/06/10 04:55:48;;;;;;;;;;;;;;;21.95;19.88;102195.38;5053027;28;19913;-69
2023/06/10 04:58:13;;;;;;;;;;;;;;;21.94;19.80;102194.53;5052860;28;19947;-69
2023/06/10 05:00:38;;;;;;;;;;;;;;;21.93;19.73;102198.31;5052835;28;19913;-69
2023/06/10 05:03:04;;;;;;;;;;;;;;;21.97;19.51;102198.69;5052305;28;19917;-69
2023/06/10 05:05:29;;;;;;;;;;;;;;;21.99;20.10;102199.31;5052972;28;19959;-69
2023/06/10 05:07:55;;;;;;;;;;;;;;;21.97;19.62;102188.63;5052748;28;20023;-69
2023/06/10 05:10:20;;;;;;;;;;;;;;;21.98;19.99;102194.91;5069667;28;19919;-70
2023/06/10 05:12:45;;;;;;;;;;;;;;;21.96;19.72;102195.16;5073079;28;19912;-70
2023/06/10 05:15:11;;;;;;;;;;;;;;;21.98;19.56;102192.19;5073310;28;20003;-69
2023/06/10 05:17:36;;;;;;;;;;;;;;;22.01;19.56;102189.00;5072830;28;19912;-69
2023/06/10 05:20:02;;;;;;;;;;;;;;;21.99;19.41;102188.38;5072667;28;19913;-70
2023/06/10 05:22:27;;;;;;;;;;;;;;;22.00;19.48;102188.16;5072599;28;20256;-69
2023/06/10 05:24:53;;;;;;;;;;;;;;;22.01;20.09;102191.75;5063719;28;19919;-69
2023/06/10 05:27:18;;;;;;;;;;;;;;;22.06;19.48;102191.03;5034608;28;20322;-69
2023/06/10 05:29:43;;;;;;;;;;;;;;;22.04;19.48;102189.34;5052588;28;20003;-69
2023/06/10 05:32:08;;;;;;;;;;;;;;;22.08;19.59;102189.72;5034702;28;20012;-69
2023/06/10 05:34:34;;;;;;;;;;;;;;;22.12;19.38;102181.91;5052311;28;19912;-69
2023/06/10 05:36:59;;;;;;;;;;;;;;;22.12;19.75;102188.25;5052609;28;19917;-69
2023/06/10 05:39:25;;;;;;;;;;;;;;;22.12;19.57;102185.50;5034991;28;19963;-69
2023/06/10 05:41:50;;;;;;;;;;;;;;;22.10;19.46;102184.03;5052486;28;19917;-69
2023/06/10 05:44:15;;;;;;;;;;;;;;;22.08;19.85;102187.00;5052558;28;19939;-69
2023/06/10 05:46:40;;;;;;;;;;;;;;;21.92;20.73;102184.91;5052191;28;19920;-70
2023/06/10 05:49:06;;;;;;;;;;;;;;;22.00;19.86;102185.41;5052197;28;19923;-70
2023/06/10 05:51:31;;;;;;;;;;;;;;;22.07;19.53;102179.88;5052436;28;20267;-69
2023/06/10 05:53:56;;;;;;;;;;;;;;;22.10;19.46;102184.91;5052232;28;20008;-69
2023/06/10 05:56:22;;;;;;;;;;;;;;;22.12;19.68;102181.91;5052340;28;19936;-69
2023/06/10 05:58:48;;;;;;;;;;;;;;;22.15;19.78;102185.03;5052114;28;19964;-70
2023/06/10 06:01:13;;;;;;;;;;;;;;;22.18;19.38;102186.47;5033867;28;19964;-69
2023/06/10 06:03:38;;;;;;;;;;;;;;;22.21;19.63;102194.22;5052511;28;19913;-70
2023/06/10 06:06:04;;;;;;;;;;;;;;;22.21;19.53;102189.59;5034612;28;20403;-70
2023/06/10 06:08:29;;;;;;;;;;;;;;;22.20;19.94;102198.03;5053577;28;19939;-69
2023/06/10 06:10:54;;;;;;;;;;;;;;;22.19;19.90;102202.69;5072278;28;19912;-69
2023/06/10 06:13:20;;;;;;;;;;;;;;;22.22;19.53;102193.16;5071994;28;19923;-69
2023/06/10 06:15:45;;;;;;;;;;;;;;;22.29;19.69;102206.78;5053994;28;19920;-69
2023/06/10 06:18:11;;;;;;;;;;;;;;;22.28;19.47;102205.13;5037390;28;19912;-69
2023/06/10 06:20:36;;;;;;;;;;;;;;;22.34;19.46;102212.41;5066838;28;19963;-69
2023/06/10 06:23:02;;;;;;;;;;;;;;;22.34;20.03;102215.16;5052380;28;20489;-70
2023/06/10 06:25:27;;;;;;;;;;;;;;;22.39;19.71;102212.56;5052175;28;19913;-70
2023/06/10 06:27:52;;;;;;;;;;;;;;;22.41;19.46;102205.78;5052086;28;19923;-71
2023/06/10 06:30:18;;;;;;;;;;;;;;;22.53;19.51;102213.22;5034682;28;19913;-70
2023/06/10 06:32:43;;;;;;;;;;;;;;;22.62;19.32;102203.59;5055798;28;20003;-70
2023/06/10 06:35:08;;;;;;;;;;;;;;;22.67;19.17;102206.50;5055757;28;19931;-70
2023/06/10 06:37:34;;;;;;;;;;;;;;;22.64;19.69;102209.72;5056012;28;19913;-70
2023/06/10 06:39:59;;;;;;;;;;;;;;;22.73;19.23;102204.72;5055699;28;19920;-70
2023/06/10 06:42:25;;;;;;;;;;;;;;;22.76;19.01;102209.75;5037784;28;20031;-70
2023/06/10 06:44:50;;;;;;;;;;;;;;;22.79;18.94;102209.31;5038062;28;19916;-69
2023/06/10 06:47:19;;;;;;;;;;;;;;;22.70;18.79;102206.03;5055713;28;20372;-69
2023/06/10 06:49:45;;;;;;;;;;;;;;;22.63;18.64;102212.69;5038204;28;19952;-69
2023/06/10 06:52:10;;;;;;;;;;;;;;;22.63;18.98;102207.22;5055622;28;19998;-68
2023/06/10 06:54:35;;;;;;;;;;;;;;;22.72;18.56;102203.06;5055319;28;20380;-68
2023/06/10 06:57:00;;;;;;;;;;;;;;;22.81;18.82;102205.25;5055207;28;20384;-68
2023/06/10 06:59:26;;;;;;;;;;;;;;;22.87;18.65;102214.44;5054930;28;19928;-68
2023/06/10 07:01:53;;;;;;;;;;;;;;;22.87;18.83;102216.34;5054549;28;20296;-68
2023/06/10 07:04:21;;;;;;;;;;;;;;;22.95;18.68;102211.34;5055249;28;19996;-68
2023/06/10 07:06:46;;;;;;;;;;;;;;;23.01;18.87;102220.53;5055379;28;19955;-68
2023/06/10 07:09:12;;;;;;;;;;;;;;;22.98;18.72;102210.91;5062588;28;19960;-68
2023/06/10 07:11:37;;;;;;;;;;;;;;;22.98;18.90;102210.06;5075155;28;19995;-67
2023/06/10 07:14:02;;;;;;;;;;;;;;;22.95;18.81;102208.59;5075123;28;19979;-67
2023/06/10 07:16:28;;;;;;;;;;;;;;;23.03;18.88;102203.88;5073366;28;19920;-67
2023/06/10 07:18:53;;;;;;;;;;;;;;;23.03;18.93;102206.59;5055064;28;19925;-68
2023/06/10 07:21:19;;;;;;;;;;;;;;;23.13;18.97;102206.91;5054972;28;19956;-68
2023/06/10 07:23:44;;;;;;;;;;;;;;;23.16;18.68;102210.03;5037302;28;19958;-68
2023/06/10 07:26:10;;;;;;;;;;;;;;;23.13;18.96;102206.91;5055233;28;19917;-68
2023/06/10 07:28:36;;;;;;;;;;;;;;;23.16;19.16;102211.91;5054844;28;20242;-67
2023/06/10 07:31:01;;;;;;;;;;;;;;;23.24;18.62;102208.84;5054828;28;19958;-68
2023/06/10 07:33:27;;;;;;;;;;;;;;;23.31;18.71;102209.56;5054617;28;19913;-68
2023/06/10 07:35:52;;;;;;;;;;;;;;;23.36;18.77;102211.59;5054633;28;20309;-68
2023/06/10 07:38:17;;;;;;;;;;;;;;;23.28;18.74;102214.69;5054732;28;19958;-68
2023/06/10 07:40:43;;;;;;;;;;;;;;;23.37;18.39;102203.13;5036704;28;20578;-69
2023/06/10 07:43:08;;;;;;;;;;;;;;;23.45;18.45;102204.69;5036498;28;19949;-67
2023/06/10 07:45:33;;;;;;;;;;;;;;;23.44;18.66;102202.16;5054358;28;20256;-68
2023/06/10 07:47:59;;;;;;;;;;;;;;;23.48;18.62;102200.66;5054233;28;19920;-67
2023/06/10 07:50:24;;;;;;;;;;;;;;;23.38;19.09;102213.03;5054112;28;19913;-68
2023/06/10 07:52:49;;;;;;;;;;;;;;;23.45;18.40;102199.19;5053877;28;19936;-69
2023/06/10 07:55:14;;;;;;;;;;;;;;;23.49;18.47;102197.66;5053932;28;19917;-68
2023/06/10 07:57:40;;;;;;;;;;;;;;;23.56;18.85;102203.03;5053772;28;19917;-68
2023/06/10 08:00:06;;;;;;;;;;;;;;;23.59;18.32;102205.31;5054276;28;19924;-68
2023/06/10 08:02:31;;;;;;;;;;;;;;;23.65;18.36;102198.84;5053101;28;19913;-68
2023/06/10 08:04:56;;;;;;;;;;;;;;;23.69;18.42;102196.47;5053796;28;19912;-68
2023/06/10 08:07:22;;;;;;;;;;;;;;;23.75;18.31;102196.34;5053842;28;20530;-68
2023/06/10 08:09:47;;;;;;;;;;;;;;;23.84;18.16;102199.56;5064629;28;19966;-68
2023/06/10 08:12:13;;;;;;;;;;;;;;;23.81;18.46;102205.56;5061927;28;20417;-68
2023/06/10 08:14:38;;;;;;;;;;;;;;;23.72;18.25;102199.56;5046592;28;19999;-68
2023/06/10 08:17:05;;;;;;;;;;;;;;;23.78;18.29;102193.09;5041650;28;20329;-68
2023/06/10 08:19:31;;;;;;;;;;;;;;;23.90;18.29;102189.53;5015794;28;19959;-68
2023/06/10 08:21:56;;;;;;;;;;;;;;;24.01;18.02;102198.84;5033561;28;19956;-68
2023/06/10 08:24:21;;;;;;;;;;;;;;;23.93;18.44;102187.16;5033931;28;19959;-68
2023/06/10 08:26:47;;;;;;;;;;;;;;;24.02;18.08;102198.59;5034271;28;20393;-68
2023/06/10 08:29:13;;;;;;;;;;;;;;;24.06;17.97;102190.72;5033875;28;20012;-68
2023/06/10 08:31:40;;;;;;;;;;;;;;;23.99;18.10;102193.59;5033424;28;19919;-68
2023/06/10 08:34:06;;;;;;;;;;;;;;;24.13;18.01;102189.50;5033320;28;19917;-68
2023/06/10 08:36:31;;;;;;;;;;;;;;;24.24;17.82;102189.72;5034631;28;19913;-69
2023/06/10 08:38:56;;;;;;;;;;;;;;;24.17;17.60;102194.53;5036105;28;19913;-69
2023/06/10 08:41:26;;;;;;;;;;;;;;;24.26;17.79;102193.88;5036556;28;19955;-70
2023/06/10 08:44:01;;;;;;;;;;;;;;;24.28;17.71;102199.16;5033912;28;20384;-70
2023/06/10 08:46:30;;;;;;;;;;;;;;;24.41;17.73;102196.13;5034142;28;20384;-69
2023/06/10 08:48:57;;;;;;;;;;;;;;;24.29;17.64;102196.16;5053810;28;19925;-69
2023/06/10 08:51:24;;;;;;;;;;;;;;;24.50;17.83;102194.66;5035940;28;19912;-69
2023/06/10 08:53:52;;;;;;;;;;;;;;;24.63;17.75;102181.72;5052832;28;20541;-69
2023/06/10 08:56:18;;;;;;;;;;;;;;;24.61;17.77;102187.47;5053289;28;19912;-69
2023/06/10 08:58:44;;;;;;;;;;;;;;;24.70;17.41;102182.38;5053597;28;19928;-69
2023/06/10 09:01:10;;;;;;;;;;;;;;;24.87;17.21;102182.41;5051409;28;19951;-68
2023/06/10 09:03:37;;;;;;;;;;;;;;;24.90;17.48;102185.50;5053093;28;19997;-68
2023/06/10 09:06:04;;;;;;;;;;;;;;;25.01;17.40;102164.53;5053086;28;19995;-68
2023/06/10 09:08:30;;;;;;;;;;;;;;;25.07;17.24;102168.19;5054310;28;19925;-69
2023/06/10 09:10:56;;;;;;;;;;;;;;;25.07;16.90;102168.19;5055094;28;19924;-69
2023/06/10 09:13:21;;;;;;;;;;;;;;;25.20;17.16;102175.28;5052721;28;19912;-69
2023/06/10 09:15:48;;;;;;;;;;;;;;;25.28;17.21;102164.72;5052582;28;19931;-69
2023/06/10 09:18:14;;;;;;;;;;;;;;;25.40;17.06;102170.13;5052471;28;19963;-69
2023/06/10 09:20:41;;;;;;;;;;;;;;;25.44;16.63;102170.47;5052327;28;19917;-69
2023/06/10 09:23:07;;;;;;;;;;;;;;;25.48;16.96;102157.84;5052612;28;20004;-69
2023/06/10 09:25:36;;;;;;;;;;;;;;;25.43;16.80;102166.06;5052457;28;19948;-69
2023/06/10 09:28:02;;;;;;;;;;;;;;;25.46;16.56;102171.03;5052790;28;19964;-69
2023/06/10 09:30:29;;;;;;;;;;;;;;;25.53;16.68;102168.13;5052348;28;20404;-68
2023/06/10 09:32:56;;;;;;;;;;;;;;;25.66;16.32;102162.25;5052545;28;19913;-68
2023/06/10 09:35:22;;;;;;;;;;;;;;;25.67;16.49;102152.94;5052410;28;19962;-68
2023/06/10 09:37:49;;;;;;;;;;;;;;;25.74;15.99;102155.47;5052671;28;19916;-68
2023/06/10 09:40:15;;;;;;;;;;;;;;;25.79;16.43;102164.63;5034453;28;19962;-69
2023/06/10 09:42:40;;;;;;;;;;;;;;;25.86;16.35;102158.94;5052406;28;19917;-68
2023/06/10 09:45:06;;;;;;;;;;;;;;;25.93;16.49;102159.63;5052357;28;19917;-68
2023/06/10 09:47:31;;;;;;;;;;;;;;;25.95;15.99;102153.88;5052365;28;19913;-69
2023/06/10 09:49:58;;;;;;;;;;;;;;;26.07;16.30;102160.06;5052378;28;20254;-69
2023/06/10 09:52:24;;;;;;;;;;;;;;;26.01;15.58;102152.84;5052377;28;20049;-69
2023/06/10 09:55:00;;;;;;;;;;;;;;;26.03;15.62;102157.00;5052050;28;20292;-70
2023/06/10 09:57:25;;;;;;;;;;;;;;;26.18;15.83;102142.56;5040927;28;19924;-69
2023/06/10 09:59:54;;;;;;;;;;;;;;;26.21;15.65;102142.06;5042409;28;19921;-67
2023/06/10 10:02:20;;;;;;;;;;;;;;;26.36;15.61;102130.38;5047378;28;20372;-68
2023/06/10 10:04:45;;;;;;;;;;;;;;;26.51;15.24;102137.16;5046656;28;19995;-67
2023/06/10 10:07:11;;;;;;;;;;;;;;;26.53;14.94;102140.47;5044275;28;19939;-69
2023/06/10 10:09:40;;;;;;;;;;;;;;;26.67;14.92;102132.63;5049611;28;19917;-69
2023/06/10 10:12:08;;;;;;;;;;;;;;;26.60;15.36;102128.19;5045416;28;19913;-69
2023/06/10 10:14:35;;;;;;;;;;;;;;;26.69;14.50;102128.53;5046587;28;19971;-69
2023/06/10 10:17:02;;;;;;;;;;;;;;;26.74;15.18;102128.56;5046060;28;19917;-69
2023/06/10 10:19:47;;;;;;;;;;;;;;;27.04;14.89;102125.25;5045593;28;20242;-71
2023/06/10 10:22:29;;;;;;;;;;;;;;;27.30;15.07;102128.19;5048555;28;20377;-69
2023/06/10 10:25:01;;;;;;;;;;;;;;;27.58;14.69;102126.13;5046811;28;20051;-70
2023/06/10 10:27:28;;;;;;;;;;;;;;;27.85;14.36;102119.66;5028751;28;19945;-70
2023/06/10 10:29:54;;;;;;;;;;;;;;;28.00;14.41;102119.75;5044684;28;19921;-69
2023/06/10 10:32:24;;;;;;;;;;;;;;;28.15;14.04;102113.44;5050515;28;19919;-69
2023/06/10 10:34:53;;;;;;;;;;;;;;;28.39;14.46;102109.06;5055785;28;19913;-70
2023/06/10 10:37:19;;;;;;;;;;;;;;;28.70;14.39;102109.13;5037867;28;19912;-71
2023/06/10 10:39:45;;;;;;;;;;;;;;;28.99;13.88;102107.72;5067856;28;19917;-71
2023/06/10 10:42:11;;;;;;;;;;;;;;;29.24;13.99;102095.81;5055789;28;19923;-70
2023/06/10 10:44:39;;;;;;;;;;;;;;;29.46;13.65;102099.09;5055816;28;20384;-70
2023/06/10 10:47:07;;;;;;;;;;;;;;;29.69;13.52;102103.13;5055699;28;19913;-70
2023/06/10 10:49:35;;;;;;;;;;;;;;;29.98;13.49;102109.97;5037830;28;19924;-70
2023/06/10 10:52:01;;;;;;;;;;;;;;;30.21;12.57;102100.97;5055677;28;19974;-68
2023/06/10 10:54:33;;;;;;;;;;;;;;;30.42;13.19;102093.38;5055693;28;20078;-69
2023/06/10 10:57:11;;;;;;;;;;;;;;;30.65;12.34;102091.81;5055940;28;19913;-69
2023/06/10 10:59:49;;;;;;;;;;;;;;;30.95;12.69;102092.66;5054607;28;19920;-68
2023/06/10 11:02:18;;;;;;;;;;;;;;;31.17;12.63;102088.59;5053705;28;19912;-69
2023/06/10 11:04:44;;;;;;;;;;;;;;;31.40;11.91;102089.69;5054458;28;19917;-69
2023/06/10 11:07:10;;;;;;;;;;;;;;;31.45;10.78;102092.41;5036225;28;20313;-68
2023/06/10 11:09:35;;;;;;;;;;;;;;;31.26;10.43;102090.41;5064928;28;20414;-68
2023/06/10 11:12:01;;;;;;;;;;;;;;;31.51;11.65;102090.44;5074046;28;20377;-69
2023/06/10 11:14:28;;;;;;;;;;;;;;;31.67;11.58;102091.06;5073991;28;19917;-69
2023/06/10 11:16:56;;;;;;;;;;;;;;;31.79;11.55;102097.84;5073982;28;19912;-69
2023/06/10 11:19:46;;;;;;;;;;;;;;;31.97;10.95;102093.44;5073998;28;19951;-69
2023/06/10 11:22:15;;;;;;;;;;;;;;;31.97;10.91;102089.84;5073876;28;19918;-69
2023/06/10 11:24:47;;;;;;;;;;;;;;;31.87;10.35;102095.53;5073917;28;19912;-69
2023/06/10 11:27:17;;;;;;;;;;;;;;;31.85;10.76;102090.25;5047859;28;20399;-69
2023/06/10 11:29:55;;;;;;;;;;;;;;;31.89;10.97;102087.72;5042491;28;19917;-69
2023/06/10 11:32:20;;;;;;;;;;;;;;;32.09;10.64;102086.63;5042601;28;19924;-69
2023/06/10 11:34:52;;;;;;;;;;;;;;;32.17;11.23;102086.78;5044066;28;19912;-69
2023/06/10 11:37:17;;;;;;;;;;;;;;;32.23;9.58;102081.97;5052865;28;19921;-68
2023/06/10 11:39:42;;;;;;;;;;;;;;;32.54;10.41;102075.91;5035784;28;20002;-69
2023/06/10 11:42:08;;;;;;;;;;;;;;;32.60;10.20;102078.34;5053534;28;20027;-69
2023/06/10 11:44:37;;;;;;;;;;;;;;;32.58;9.92;102075.03;5053511;28;20322;-69
2023/06/10 11:47:02;;;;;;;;;;;;;;;32.77;10.61;102082.50;5035657;28;19913;-69
2023/06/10 11:49:28;;;;;;;;;;;;;;;32.92;9.33;102079.44;5035511;28;20004;-69
2023/06/10 11:51:53;;;;;;;;;;;;;;;33.13;10.60;102073.53;5053437;28;19913;-69
2023/06/10 11:54:18;;;;;;;;;;;;;;;33.16;9.47;102075.69;5053503;28;20019;-69
2023/06/10 11:56:44;;;;;;;;;;;;;;;33.33;9.35;102078.69;5053467;28;20415;-70
2023/06/10 11:59:09;;;;;;;;;;;;;;;33.34;9.20;102074.78;4971847;28;1826601;-70
2023/06/10 12:01:42;;;;;;;;;;;;;;;33.35;9.62;102062.47;5053667;28;20438;-70
2023/06/10 12:04:09;;;;;;;;;;;;;;;33.25;9.62;102068.28;5054886;28;19913;-70
2023/06/10 12:06:38;;;;;;;;;;;;;;;33.63;9.80;102059.66;5055443;28;19913;-70
2023/06/10 12:09:03;;;;;;;;;;;;;;;33.63;10.09;102064.44;5060971;28;19916;-69
2023/06/10 12:11:29;;;;;;;;;;;;;;;33.83;9.24;102049.25;5075411;28;20007;-70
2023/06/10 12:13:54;;;;;;;;;;;;;;;33.96;9.60;102061.50;5056907;28;20274;-71
2023/06/10 12:16:19;;;;;;;;;;;;;;;34.15;9.31;102048.19;5057120;28;20051;-70
2023/06/10 12:18:46;;;;;;;;;;;;;;;34.13;8.12;102058.84;5056326;28;20490;-70
2023/06/10 12:21:23;;;;;;;;;;;;;;;34.06;8.96;102062.06;5073940;28;19919;-69
2023/06/10 12:24:17;;;;;;;;;;;;;;;34.10;9.37;102051.09;5073763;28;19942;-69
2023/06/10 12:26:47;;;;;;;;;;;;;;;34.27;8.53;102056.88;5052404;28;19916;-69
2023/06/10 12:29:20;;;;;;;;;;;;;;;34.56;8.87;102046.38;5072929;28;19928;-69
2023/06/10 12:31:52;;;;;;;;;;;;;;;34.94;8.95;102043.16;5071249;28;19919;-69
2023/06/10 12:34:17;;;;;;;;;;;;;;;35.23;8.73;102046.25;5053799;28;19916;-68